sensor_id;sensor_type;location;lat;lon;timestamp;temperature;humidity
16491;DHT22;8356;51.214;3.270;2023-12-22T00:00:48;307.60;2304.00
16491;DHT22;8356;51.214;3.270;2023-12-22T00:03:14;307.60;2304.00
16491;DHT22;8356;51.214;3.270;2023-12-22T00:05:41;307.70;2304.00
16491;DHT22;8356;51.214;3.270;2023-12-22T00:08:06;307.70;2304.00
16491;DHT22;8356;51.214;3.270;2023-12-22T00:10:32;307.70;2304.00
16491;DHT22;8356;51.214;3.270;2023-12-22T00:12:57;307.70;2304.00
16491;DHT22;8356;51.214;3.270;2023-12-22T00:15:23;307.70;2304.00
16491;DHT22;8356;51.214;3.270;2023-12-22T00:17:49;307.60;2304.00
16491;DHT22;8356;51.214;3.270;2023-12-22T00:20:14;307.60;2304.00
16491;DHT22;8356;51.214;3.270;2023-12-22T00:22:40;307.60;2304.00
16491;DHT22;8356;51.214;3.270;2023-12-22T00:25:06;307.60;2304.00
16491;DHT22;8356;51.214;3.270;2023-12-22T00:27:33;307.60;2304.00
16491;DHT22;8356;51.214;3.270;2023-12-22T00:29:59;307.60;2304.00
16491;DHT22;8356;51.214;3.270;2023-12-22T00:32:25;307.60;2304.00
16491;DHT22;8356;51.214;3.270;2023-12-22T00:34:50;307.60;2304.00
16491;DHT22;8356;51.214;3.270;2023-12-22T00:37:16;307.60;2304.00
16491;DHT22;8356;51.214;3.270;2023-12-22T00:39:42;307.60;2304.00
16491;DHT22;8356;51.214;3.270;2023-12-22T00:42:07;307.60;2304.00
16491;DHT22;8356;51.214;3.270;2023-12-22T00:44:33;307.70;2304.00
16491;DHT22;8356;51.214;3.270;2023-12-22T00:46:59;307.70;2304.00
16491;DHT22;8356;51.214;3.270;2023-12-22T00:49:24;307.70;2304.00
16491;DHT22;8356;51.214;3.270;2023-12-22T00:51:50;307.70;2304.00
16491;DHT22;8356;51.214;3.270;2023-12-22T00:54:15;307.80;2304.00
16491;DHT22;8356;51.214;3.270;2023-12-22T00:56:41;307.80;2304.00
16491;DHT22;8356;51.214;3.270;2023-12-22T00:59:07;307.80;2304.00
16491;DHT22;8356;51.214;3.270;2023-12-22T01:01:32;307.80;2304.00
16491;DHT22;8356;51.214;3.270;2023-12-22T01:03:58;307.90;2304.00
16491;DHT22;8356;51.214;3.270;2023-12-22T01:06:24;307.90;2304.00
16491;DHT22;8356;51.214;3.270;2023-12-22T01:08:49;307.90;2304.00
16491;DHT22;8356;51.214;3.270;2023-12-22T01:11:16;307.90;2304.00
16491;DHT22;8356;51.214;3.270;2023-12-22T01:13:43;307.90;2304.00
16491;DHT22;8356;51.214;3.270;2023-12-22T01:16:08;307.90;2304.00
16491;DHT22;8356;51.214;3.270;2023-12-22T01:18:34;307.90;2304.00
16491;DHT22;8356;51.214;3.270;2023-12-22T01:21:00;307.90;2304.00
16491;DHT22;8356;51.214;3.270;2023-12-22T01:23:25;307.90;2304.00
16491;DHT22;8356;51.214;3.270;2023-12-22T01:25:51;307.90;2304.00
16491;DHT22;8356;51.214;3.270;2023-12-22T01:28:17;307.90;2304.00
16491;DHT22;8356;51.214;3.270;2023-12-22T01:30:42;307.90;2304.00
16491;DHT22;8356;51.214;3.270;2023-12-22T01:33:08;307.90;2304.00
16491;DHT22;8356;51.214;3.270;2023-12-22T01:35:34;307.80;2304.00
16491;DHT22;8356;51.214;3.270;2023-12-22T01:37:59;307.70;2304.00
16491;DHT22;8356;51.214;3.270;2023-12-22T01:40:25;307.60;2304.00
16491;DHT22;8356;51.214;3.270;2023-12-22T01:42:51;307.50;2304.00
16491;DHT22;8356;51.214;3.270;2023-12-22T01:45:17;307.50;2304.00
16491;DHT22;8356;51.214;3.270;2023-12-22T01:47:43;307.40;2304.00
16491;DHT22;8356;51.214;3.270;2023-12-22T01:50:10;307.40;2304.00
16491;DHT22;8356;51.214;3.270;2023-12-22T01:52:38;307.40;2304.00
16491;DHT22;8356;51.214;3.270;2023-12-22T01:55:05;307.40;2304.00
16491;DHT22;8356;51.214;3.270;2023-12-22T01:57:33;307.30;2304.00
16491;DHT22;8356;51.214;3.270;2023-12-22T02:00:00;307.50;2304.00
16491;DHT22;8356;51.214;3.270;2023-12-22T02:02:26;307.30;2304.00
16491;DHT22;8356;51.214;3.270;2023-12-22T02:04:52;307.20;2304.00
16491;DHT22;8356;51.214;3.270;2023-12-22T02:07:18;282.50;2278.40
16491;DHT22;8356;51.214;3.270;2023-12-22T02:09:44;307.20;2304.00
16491;DHT22;8356;51.214;3.270;2023-12-22T02:12:10;307.20;2304.00
16491;DHT22;8356;51.214;3.270;2023-12-22T02:14:36;307.20;2304.00
16491;DHT22;8356;51.214;3.270;2023-12-22T02:19:45;307.20;2304.00
16491;DHT22;8356;51.214;3.270;2023-12-22T02:22:12;307.20;2304.00
16491;DHT22;8356;51.214;3.270;2023-12-22T02:24:39;307.20;2304.00
16491;DHT22;8356;51.214;3.270;2023-12-22T02:29:37;281.70;2278.40
16491;DHT22;8356;51.214;3.270;2023-12-22T02:32:07;307.30;2304.00
16491;DHT22;8356;51.214;3.270;2023-12-22T02:34:36;307.30;2304.00
16491;DHT22;8356;51.214;3.270;2023-12-22T02:37:07;307.30;2304.00
16491;DHT22;8356;51.214;3.270;2023-12-22T02:39:35;307.40;2304.00
16491;DHT22;8356;51.214;3.270;2023-12-22T02:42:01;307.20;2304.00
16491;DHT22;8356;51.214;3.270;2023-12-22T02:44:27;282.50;2278.40
16491;DHT22;8356;51.214;3.270;2023-12-22T02:46:53;282.40;2278.40
16491;DHT22;8356;51.214;3.270;2023-12-22T02:49:18;282.30;2278.40
16491;DHT22;8356;51.214;3.270;2023-12-22T02:51:44;282.30;2278.40
16491;DHT22;8356;51.214;3.270;2023-12-22T02:54:10;282.20;2278.40
16491;DHT22;8356;51.214;3.270;2023-12-22T02:56:36;282.20;2278.40
16491;DHT22;8356;51.214;3.270;2023-12-22T02:59:01;282.10;2278.40
16491;DHT22;8356;51.214;3.270;2023-12-22T03:01:27;282.20;2278.40
16491;DHT22;8356;51.214;3.270;2023-12-22T03:03:52;282.20;2278.40
16491;DHT22;8356;51.214;3.270;2023-12-22T03:06:18;282.20;2278.40
16491;DHT22;8356;51.214;3.270;2023-12-22T03:08:44;282.30;2278.40
16491;DHT22;8356;51.214;3.270;2023-12-22T03:11:09;282.20;2278.40
16491;DHT22;8356;51.214;3.270;2023-12-22T03:13:35;282.20;2278.40
16491;DHT22;8356;51.214;3.270;2023-12-22T03:16:01;282.30;2278.40
16491;DHT22;8356;51.214;3.270;2023-12-22T03:18:26;282.30;2278.40
16491;DHT22;8356;51.214;3.270;2023-12-22T03:20:52;282.30;2278.40
16491;DHT22;8356;51.214;3.270;2023-12-22T03:23:17;282.40;2278.40
16491;DHT22;8356;51.214;3.270;2023-12-22T03:25:43;282.30;2278.40
16491;DHT22;8356;51.214;3.270;2023-12-22T03:28:09;282.40;2278.40
16491;DHT22;8356;51.214;3.270;2023-12-22T03:30:34;282.40;2278.40
16491;DHT22;8356;51.214;3.270;2023-12-22T03:33:01;282.40;2278.40
16491;DHT22;8356;51.214;3.270;2023-12-22T03:35:27;282.50;2278.40
16491;DHT22;8356;51.214;3.270;2023-12-22T03:37:52;282.50;2278.40
16491;DHT22;8356;51.214;3.270;2023-12-22T03:40:18;282.50;2278.40
16491;DHT22;8356;51.214;3.270;2023-12-22T03:42:43;282.50;2278.40
16491;DHT22;8356;51.214;3.270;2023-12-22T03:45:09;282.50;2278.40
16491;DHT22;8356;51.214;3.270;2023-12-22T03:47:35;307.20;2304.00
16491;DHT22;8356;51.214;3.270;2023-12-22T03:50:00;307.30;2304.00
16491;DHT22;8356;51.214;3.270;2023-12-22T03:52:26;307.30;2304.00
16491;DHT22;8356;51.214;3.270;2023-12-22T03:54:52;307.30;2304.00
16491;DHT22;8356;51.214;3.270;2023-12-22T03:57:17;307.30;2304.00
16491;DHT22;8356;51.214;3.270;2023-12-22T03:59:43;307.30;2304.00
16491;DHT22;8356;51.214;3.270;2023-12-22T04:02:09;307.30;2304.00
16491;DHT22;8356;51.214;3.270;2023-12-22T04:04:38;307.30;2304.00
16491;DHT22;8356;51.214;3.270;2023-12-22T04:07:03;307.40;2304.00
16491;DHT22;8356;51.214;3.270;2023-12-22T04:09:29;307.30;2304.00
16491;DHT22;8356;51.214;3.270;2023-12-22T04:11:55;307.30;2304.00
16491;DHT22;8356;51.214;3.270;2023-12-22T04:14:20;307.40;2304.00
16491;DHT22;8356;51.214;3.270;2023-12-22T04:16:46;307.40;2304.00
16491;DHT22;8356;51.214;3.270;2023-12-22T04:19:12;307.40;2304.00
16491;DHT22;8356;51.214;3.270;2023-12-22T04:21:38;307.40;2304.00
16491;DHT22;8356;51.214;3.270;2023-12-22T04:24:04;307.40;2304.00
16491;DHT22;8356;51.214;3.270;2023-12-22T04:26:30;307.40;2304.00
16491;DHT22;8356;51.214;3.270;2023-12-22T04:28:55;307.40;2304.00
16491;DHT22;8356;51.214;3.270;2023-12-22T04:31:21;307.40;2304.00
16491;DHT22;8356;51.214;3.270;2023-12-22T04:33:46;307.40;2304.00
16491;DHT22;8356;51.214;3.270;2023-12-22T04:36:12;307.40;2304.00
16491;DHT22;8356;51.214;3.270;2023-12-22T04:38:38;307.50;2304.00
16491;DHT22;8356;51.214;3.270;2023-12-22T04:41:05;307.60;2304.00
16491;DHT22;8356;51.214;3.270;2023-12-22T04:43:31;307.50;2304.00
16491;DHT22;8356;51.214;3.270;2023-12-22T04:45:57;307.60;2304.00
16491;DHT22;8356;51.214;3.270;2023-12-22T04:48:22;307.60;2304.00
16491;DHT22;8356;51.214;3.270;2023-12-22T04:50:48;307.70;2304.00
16491;DHT22;8356;51.214;3.270;2023-12-22T04:53:13;307.70;2304.00
16491;DHT22;8356;51.214;3.270;2023-12-22T04:55:39;307.70;2304.00
16491;DHT22;8356;51.214;3.270;2023-12-22T04:58:05;307.70;2304.00
16491;DHT22;8356;51.214;3.270;2023-12-22T05:00:30;307.80;2304.00
16491;DHT22;8356;51.214;3.270;2023-12-22T05:02:56;307.80;2304.00
16491;DHT22;8356;51.214;3.270;2023-12-22T05:05:22;307.70;2304.00
16491;DHT22;8356;51.214;3.270;2023-12-22T05:07:47;307.90;2304.00
16491;DHT22;8356;51.214;3.270;2023-12-22T05:10:13;307.90;2304.00
16491;DHT22;8356;51.214;3.270;2023-12-22T05:12:38;307.90;2304.00
16491;DHT22;8356;51.214;3.270;2023-12-22T05:15:04;307.90;2304.00
16491;DHT22;8356;51.214;3.270;2023-12-22T05:17:30;307.90;2304.00
16491;DHT22;8356;51.214;3.270;2023-12-22T05:19:56;307.90;2304.00
16491;DHT22;8356;51.214;3.270;2023-12-22T05:22:21;307.90;2304.00
16491;DHT22;8356;51.214;3.270;2023-12-22T05:24:47;307.90;2304.00
16491;DHT22;8356;51.214;3.270;2023-12-22T05:27:13;307.90;2304.00
16491;DHT22;8356;51.214;3.270;2023-12-22T05:29:39;307.90;2304.00
16491;DHT22;8356;51.214;3.270;2023-12-22T05:32:05;307.80;2304.00
16491;DHT22;8356;51.214;3.270;2023-12-22T05:34:31;307.90;2304.00
16491;DHT22;8356;51.214;3.270;2023-12-22T05:36:57;307.90;2304.00
16491;DHT22;8356;51.214;3.270;2023-12-22T05:39:22;307.90;2304.00
16491;DHT22;8356;51.214;3.270;2023-12-22T05:41:48;307.90;2304.00
16491;DHT22;8356;51.214;3.270;2023-12-22T05:44:14;307.80;2304.00
16491;DHT22;8356;51.214;3.270;2023-12-22T05:46:39;307.80;2304.00
16491;DHT22;8356;51.214;3.270;2023-12-22T05:49:05;307.80;2304.00
16491;DHT22;8356;51.214;3.270;2023-12-22T05:51:38;307.70;2304.00
16491;DHT22;8356;51.214;3.270;2023-12-22T05:54:08;307.60;2304.00
16491;DHT22;8356;51.214;3.270;2023-12-22T05:56:34;307.60;2304.00
16491;DHT22;8356;51.214;3.270;2023-12-22T05:58:59;307.60;2304.00
16491;DHT22;8356;51.214;3.270;2023-12-22T06:01:25;307.60;2304.00
16491;DHT22;8356;51.214;3.270;2023-12-22T06:03:51;307.60;2304.00
16491;DHT22;8356;51.214;3.270;2023-12-22T06:06:17;307.60;2304.00
16491;DHT22;8356;51.214;3.270;2023-12-22T06:08:44;307.60;2304.00
16491;DHT22;8356;51.214;3.270;2023-12-22T06:11:09;307.60;2304.00
16491;DHT22;8356;51.214;3.270;2023-12-22T06:13:35;307.60;2304.00
16491;DHT22;8356;51.214;3.270;2023-12-22T06:16:01;307.60;2304.00
16491;DHT22;8356;51.214;3.270;2023-12-22T06:18:26;307.60;2304.00
16491;DHT22;8356;51.214;3.270;2023-12-22T06:20:52;307.60;2304.00
16491;DHT22;8356;51.214;3.270;2023-12-22T06:23:18;307.60;2304.00
16491;DHT22;8356;51.214;3.270;2023-12-22T06:25:44;307.60;2304.00
16491;DHT22;8356;51.214;3.270;2023-12-22T06:28:12;307.60;2304.00
16491;DHT22;8356;51.214;3.270;2023-12-22T06:30:37;307.60;2304.00
16491;DHT22;8356;51.214;3.270;2023-12-22T06:33:03;307.60;2304.00
16491;DHT22;8356;51.214;3.270;2023-12-22T06:35:29;307.60;2304.00
16491;DHT22;8356;51.214;3.270;2023-12-22T06:37:57;307.60;2304.00
16491;DHT22;8356;51.214;3.270;2023-12-22T06:40:26;307.60;2304.00
16491;DHT22;8356;51.214;3.270;2023-12-22T06:42:52;307.60;2304.00
16491;DHT22;8356;51.214;3.270;2023-12-22T06:45:17;307.60;2304.00
16491;DHT22;8356;51.214;3.270;2023-12-22T06:47:43;307.60;2304.00
16491;DHT22;8356;51.214;3.270;2023-12-22T06:50:09;307.60;2304.00
16491;DHT22;8356;51.214;3.270;2023-12-22T06:52:34;307.60;2304.00
16491;DHT22;8356;51.214;3.270;2023-12-22T06:55:00;307.60;2304.00
16491;DHT22;8356;51.214;3.270;2023-12-22T06:57:26;307.60;2304.00
16491;DHT22;8356;51.214;3.270;2023-12-22T06:59:51;307.60;2304.00
16491;DHT22;8356;51.214;3.270;2023-12-22T07:02:17;307.60;2304.00
16491;DHT22;8356;51.214;3.270;2023-12-22T07:07:51;307.60;2304.00
16491;DHT22;8356;51.214;3.270;2023-12-22T07:10:17;307.60;2304.00
16491;DHT22;8356;51.214;3.270;2023-12-22T07:12:43;307.50;2304.00
16491;DHT22;8356;51.214;3.270;2023-12-22T07:15:08;307.50;2304.00
16491;DHT22;8356;51.214;3.270;2023-12-22T07:17:34;307.50;2304.00
16491;DHT22;8356;51.214;3.270;2023-12-22T07:20:00;307.50;2304.00
16491;DHT22;8356;51.214;3.270;2023-12-22T07:22:28;307.50;2304.00
16491;DHT22;8356;51.214;3.270;2023-12-22T07:24:54;307.50;2304.00
16491;DHT22;8356;51.214;3.270;2023-12-22T07:27:21;307.50;2304.00
16491;DHT22;8356;51.214;3.270;2023-12-22T07:29:46;307.50;2304.00
16491;DHT22;8356;51.214;3.270;2023-12-22T07:32:12;307.50;2304.00
16491;DHT22;8356;51.214;3.270;2023-12-22T07:34:38;307.50;2304.00
16491;DHT22;8356;51.214;3.270;2023-12-22T07:37:03;307.50;2304.00
16491;DHT22;8356;51.214;3.270;2023-12-22T07:39:30;307.50;2304.00
16491;DHT22;8356;51.214;3.270;2023-12-22T07:41:55;307.50;2304.00
16491;DHT22;8356;51.214;3.270;2023-12-22T07:44:21;307.60;2304.00
16491;DHT22;8356;51.214;3.270;2023-12-22T07:46:59;307.50;2304.00
16491;DHT22;8356;51.214;3.270;2023-12-22T07:49:24;307.60;2304.00
16491;DHT22;8356;51.214;3.270;2023-12-22T07:51:52;307.60;2304.00
16491;DHT22;8356;51.214;3.270;2023-12-22T07:54:18;307.60;2304.00
16491;DHT22;8356;51.214;3.270;2023-12-22T07:56:44;307.60;2304.00
16491;DHT22;8356;51.214;3.270;2023-12-22T07:59:09;307.60;2304.00
16491;DHT22;8356;51.214;3.270;2023-12-22T08:01:35;307.70;2304.00
16491;DHT22;8356;51.214;3.270;2023-12-22T08:04:00;307.70;2304.00
16491;DHT22;8356;51.214;3.270;2023-12-22T08:06:26;307.70;2304.00
16491;DHT22;8356;51.214;3.270;2023-12-22T08:08:52;307.70;2304.00
16491;DHT22;8356;51.214;3.270;2023-12-22T08:11:18;307.60;2304.00
16491;DHT22;8356;51.214;3.270;2023-12-22T08:13:45;307.80;2304.00
16491;DHT22;8356;51.214;3.270;2023-12-22T08:16:10;307.90;2304.00
16491;DHT22;8356;51.214;3.270;2023-12-22T08:18:36;307.90;2304.00
16491;DHT22;8356;51.214;3.270;2023-12-22T08:21:02;307.90;2304.00
16491;DHT22;8356;51.214;3.270;2023-12-22T08:23:27;307.90;2304.00
16491;DHT22;8356;51.214;3.270;2023-12-22T08:25:54;308.00;2304.00
16491;DHT22;8356;51.214;3.270;2023-12-22T08:28:20;308.00;2304.00
16491;DHT22;8356;51.214;3.270;2023-12-22T08:30:45;308.00;2304.00
16491;DHT22;8356;51.214;3.270;2023-12-22T08:33:11;308.10;2304.00
16491;DHT22;8356;51.214;3.270;2023-12-22T08:35:37;308.10;2304.00
16491;DHT22;8356;51.214;3.270;2023-12-22T08:38:02;332.80;2329.60
16491;DHT22;8356;51.214;3.270;2023-12-22T08:40:28;332.80;2329.60
16491;DHT22;8356;51.214;3.270;2023-12-22T08:42:54;332.80;2329.60
16491;DHT22;8356;51.214;3.270;2023-12-22T08:45:20;332.80;2329.60
16491;DHT22;8356;51.214;3.270;2023-12-22T08:47:46;332.80;2329.60
16491;DHT22;8356;51.214;3.270;2023-12-22T08:50:12;332.90;2329.60
16491;DHT22;8356;51.214;3.270;2023-12-22T08:52:38;333.00;2329.60
16491;DHT22;8356;51.214;3.270;2023-12-22T08:55:04;333.00;2329.60
16491;DHT22;8356;51.214;3.270;2023-12-22T08:57:30;333.00;2329.60
16491;DHT22;8356;51.214;3.270;2023-12-22T08:59:57;333.10;2329.60
16491;DHT22;8356;51.214;3.270;2023-12-22T09:02:22;333.10;2329.60
16491;DHT22;8356;51.214;3.270;2023-12-22T09:04:48;333.10;2329.60
16491;DHT22;8356;51.214;3.270;2023-12-22T09:07:14;333.10;2329.60
16491;DHT22;8356;51.214;3.270;2023-12-22T09:09:39;333.20;2329.60
16491;DHT22;8356;51.214;3.270;2023-12-22T09:12:05;333.20;2329.60
16491;DHT22;8356;51.214;3.270;2023-12-22T09:14:31;333.20;2329.60
16491;DHT22;8356;51.214;3.270;2023-12-22T09:16:57;333.20;2329.60
16491;DHT22;8356;51.214;3.270;2023-12-22T09:19:24;333.30;2329.60
16491;DHT22;8356;51.214;3.270;2023-12-22T09:21:49;333.30;2329.60
16491;DHT22;8356;51.214;3.270;2023-12-22T09:24:15;333.30;2329.60
16491;DHT22;8356;51.214;3.270;2023-12-22T09:26:42;333.30;2329.60
16491;DHT22;8356;51.214;3.270;2023-12-22T09:29:08;333.40;2329.60
16491;DHT22;8356;51.214;3.270;2023-12-22T09:31:33;333.40;2329.60
16491;DHT22;8356;51.214;3.270;2023-12-22T09:33:59;333.40;2329.60
16491;DHT22;8356;51.214;3.270;2023-12-22T09:36:24;333.40;2329.60
16491;DHT22;8356;51.214;3.270;2023-12-22T09:38:50;333.40;2329.60
16491;DHT22;8356;51.214;3.270;2023-12-22T09:41:16;333.50;2329.60
16491;DHT22;8356;51.214;3.270;2023-12-22T09:43:42;333.50;2329.60
16491;DHT22;8356;51.214;3.270;2023-12-22T09:46:11;333.50;2329.60
16491;DHT22;8356;51.214;3.270;2023-12-22T09:48:37;333.50;2329.60
16491;DHT22;8356;51.214;3.270;2023-12-22T09:51:05;333.50;2329.60
16491;DHT22;8356;51.214;3.270;2023-12-22T09:53:33;333.50;2329.60
16491;DHT22;8356;51.214;3.270;2023-12-22T09:55:59;333.50;2329.60
16491;DHT22;8356;51.214;3.270;2023-12-22T09:58:25;333.50;2329.60
16491;DHT22;8356;51.214;3.270;2023-12-22T10:00:52;333.50;2329.60
16491;DHT22;8356;51.214;3.270;2023-12-22T10:03:19;333.50;2329.60
16491;DHT22;8356;51.214;3.270;2023-12-22T10:05:46;333.50;2329.60
16491;DHT22;8356;51.214;3.270;2023-12-22T10:08:13;333.50;2329.60
16491;DHT22;8356;51.214;3.270;2023-12-22T10:10:39;333.50;2329.60
16491;DHT22;8356;51.214;3.270;2023-12-22T10:13:11;333.40;2329.60
16491;DHT22;8356;51.214;3.270;2023-12-22T10:15:41;333.40;2329.60
16491;DHT22;8356;51.214;3.270;2023-12-22T10:18:07;333.20;2329.60
16491;DHT22;8356;51.214;3.270;2023-12-22T10:20:34;333.40;2329.60
16491;DHT22;8356;51.214;3.270;2023-12-22T10:23:00;333.50;2329.60
16491;DHT22;8356;51.214;3.270;2023-12-22T10:25:29;333.50;2329.60
16491;DHT22;8356;51.214;3.270;2023-12-22T10:27:55;333.40;2329.60
16491;DHT22;8356;51.214;3.270;2023-12-22T10:30:22;333.50;2329.60
16491;DHT22;8356;51.214;3.270;2023-12-22T10:32:51;333.50;2329.60
16491;DHT22;8356;51.214;3.270;2023-12-22T10:35:17;333.10;2329.60
16491;DHT22;8356;51.214;3.270;2023-12-22T10:37:45;333.50;2329.60
16491;DHT22;8356;51.214;3.270;2023-12-22T10:40:11;333.50;2329.60
16491;DHT22;8356;51.214;3.270;2023-12-22T10:42:37;358.40;2329.60
16491;DHT22;8356;51.214;3.270;2023-12-22T10:45:03;333.60;2329.60
16491;DHT22;8356;51.214;3.270;2023-12-22T10:47:29;333.60;2329.60
16491;DHT22;8356;51.214;3.270;2023-12-22T10:49:55;333.60;2329.60
16491;DHT22;8356;51.214;3.270;2023-12-22T10:52:20;333.60;2329.60
16491;DHT22;8356;51.214;3.270;2023-12-22T10:54:47;333.60;2329.60
16491;DHT22;8356;51.214;3.270;2023-12-22T10:57:16;333.70;2329.60
16491;DHT22;8356;51.214;3.270;2023-12-22T10:59:46;333.70;2329.60
16491;DHT22;8356;51.214;3.270;2023-12-22T11:02:16;333.70;2329.60
16491;DHT22;8356;51.214;3.270;2023-12-22T11:05:09;358.40;2329.60
16491;DHT22;8356;51.214;3.270;2023-12-22T11:07:35;333.70;2329.60
16491;DHT22;8356;51.214;3.270;2023-12-22T11:10:04;358.40;2329.60
16491;DHT22;8356;51.214;3.270;2023-12-22T11:12:38;358.40;2329.60
16491;DHT22;8356;51.214;3.270;2023-12-22T11:15:04;358.40;2329.60
16491;DHT22;8356;51.214;3.270;2023-12-22T11:17:34;358.40;2329.60
16491;DHT22;8356;51.214;3.270;2023-12-22T11:20:03;333.70;2329.60
16491;DHT22;8356;51.214;3.270;2023-12-22T11:22:31;358.40;2329.60
16491;DHT22;8356;51.214;3.270;2023-12-22T11:24:58;358.40;2329.60
16491;DHT22;8356;51.214;3.270;2023-12-22T11:27:26;333.70;2329.60
16491;DHT22;8356;51.214;3.270;2023-12-22T11:29:53;333.70;2329.60
16491;DHT22;8356;51.214;3.270;2023-12-22T11:32:20;333.70;2329.60
16491;DHT22;8356;51.214;3.270;2023-12-22T11:34:47;333.70;2329.60
16491;DHT22;8356;51.214;3.270;2023-12-22T11:37:15;333.70;2329.60
16491;DHT22;8356;51.214;3.270;2023-12-22T11:39:41;333.70;2329.60
16491;DHT22;8356;51.214;3.270;2023-12-22T11:42:10;333.70;2329.60
16491;DHT22;8356;51.214;3.270;2023-12-22T11:44:36;333.70;2329.60
16491;DHT22;8356;51.214;3.270;2023-12-22T11:47:06;333.70;2329.60
16491;DHT22;8356;51.214;3.270;2023-12-22T11:49:36;333.70;2329.60
16491;DHT22;8356;51.214;3.270;2023-12-22T11:52:12;333.70;2329.60
16491;DHT22;8356;51.214;3.270;2023-12-22T12:00:01;333.70;2329.60
16491;DHT22;8356;51.214;3.270;2023-12-22T12:02:30;333.70;2329.60
16491;DHT22;8356;51.214;3.270;2023-12-22T12:04:57;333.70;2329.60
16491;DHT22;8356;51.214;3.270;2023-12-22T12:07:44;333.70;2329.60
16491;DHT22;8356;51.214;3.270;2023-12-22T12:10:12;333.70;2329.60
16491;DHT22;8356;51.214;3.270;2023-12-22T12:12:38;333.70;2329.60
16491;DHT22;8356;51.214;3.270;2023-12-22T12:15:09;333.70;2329.60
16491;DHT22;8356;51.214;3.270;2023-12-22T12:17:41;333.70;2329.60
16491;DHT22;8356;51.214;3.270;2023-12-22T12:20:09;333.70;2329.60
16491;DHT22;8356;51.214;3.270;2023-12-22T12:22:36;358.40;2329.60
16491;DHT22;8356;51.214;3.270;2023-12-22T12:25:07;333.50;2329.60
16491;DHT22;8356;51.214;3.270;2023-12-22T12:27:35;333.70;2329.60
16491;DHT22;8356;51.214;3.270;2023-12-22T12:30:14;358.40;2329.60
16491;DHT22;8356;51.214;3.270;2023-12-22T12:32:43;333.70;2329.60
16491;DHT22;8356;51.214;3.270;2023-12-22T12:35:12;333.70;2329.60
16491;DHT22;8356;51.214;3.270;2023-12-22T12:37:38;333.70;2329.60
16491;DHT22;8356;51.214;3.270;2023-12-22T12:40:07;333.70;2329.60
16491;DHT22;8356;51.214;3.270;2023-12-22T12:42:36;333.70;2329.60
16491;DHT22;8356;51.214;3.270;2023-12-22T12:45:07;333.70;2329.60
16491;DHT22;8356;51.214;3.270;2023-12-22T12:47:33;333.70;2329.60
16491;DHT22;8356;51.214;3.270;2023-12-22T12:49:59;358.40;2329.60
16491;DHT22;8356;51.214;3.270;2023-12-22T12:52:26;333.70;2329.60
16491;DHT22;8356;51.214;3.270;2023-12-22T12:54:52;333.70;2329.60
16491;DHT22;8356;51.214;3.270;2023-12-22T12:57:18;333.70;2329.60
16491;DHT22;8356;51.214;3.270;2023-12-22T12:59:53;333.70;2329.60
16491;DHT22;8356;51.214;3.270;2023-12-22T13:02:19;333.70;2329.60
16491;DHT22;8356;51.214;3.270;2023-12-22T13:04:46;358.40;2329.60
16491;DHT22;8356;51.214;3.270;2023-12-22T13:07:12;358.40;2329.60
16491;DHT22;8356;51.214;3.270;2023-12-22T13:09:40;358.40;2329.60
16491;DHT22;8356;51.214;3.270;2023-12-22T13:12:07;358.40;2329.60
16491;DHT22;8356;51.214;3.270;2023-12-22T13:14:34;358.40;2329.60
16491;DHT22;8356;51.214;3.270;2023-12-22T13:17:00;333.70;2329.60
16491;DHT22;8356;51.214;3.270;2023-12-22T13:19:26;333.70;2329.60
16491;DHT22;8356;51.214;3.270;2023-12-22T13:21:55;333.70;2329.60
16491;DHT22;8356;51.214;3.270;2023-12-22T13:24:22;333.70;2329.60
16491;DHT22;8356;51.214;3.270;2023-12-22T13:26:59;358.40;2329.60
16491;DHT22;8356;51.214;3.270;2023-12-22T13:29:26;333.70;2329.60
16491;DHT22;8356;51.214;3.270;2023-12-22T13:31:52;333.70;2329.60
16491;DHT22;8356;51.214;3.270;2023-12-22T13:34:17;333.70;2329.60
16491;DHT22;8356;51.214;3.270;2023-12-22T13:36:43;333.70;2329.60
16491;DHT22;8356;51.214;3.270;2023-12-22T13:39:09;333.60;2329.60
16491;DHT22;8356;51.214;3.270;2023-12-22T13:41:39;333.70;2329.60
16491;DHT22;8356;51.214;3.270;2023-12-22T13:44:11;333.20;2329.60
16491;DHT22;8356;51.214;3.270;2023-12-22T13:46:37;333.70;2329.60
16491;DHT22;8356;51.214;3.270;2023-12-22T13:49:08;333.60;2329.60
16491;DHT22;8356;51.214;3.270;2023-12-22T13:51:43;308.10;2304.00
16491;DHT22;8356;51.214;3.270;2023-12-22T13:54:10;333.70;2329.60
16491;DHT22;8356;51.214;3.270;2023-12-22T13:56:36;333.70;2329.60
16491;DHT22;8356;51.214;3.270;2023-12-22T13:59:02;333.70;2329.60
16491;DHT22;8356;51.214;3.270;2023-12-22T14:01:28;333.70;2329.60
16491;DHT22;8356;51.214;3.270;2023-12-22T14:03:54;333.70;2329.60
16491;DHT22;8356;51.214;3.270;2023-12-22T14:06:20;333.70;2329.60
16491;DHT22;8356;51.214;3.270;2023-12-22T14:08:46;333.70;2329.60
16491;DHT22;8356;51.214;3.270;2023-12-22T14:11:11;333.70;2329.60
16491;DHT22;8356;51.214;3.270;2023-12-22T14:13:38;333.70;2329.60
16491;DHT22;8356;51.214;3.270;2023-12-22T14:16:06;333.70;2329.60
16491;DHT22;8356;51.214;3.270;2023-12-22T14:18:32;333.70;2329.60
16491;DHT22;8356;51.214;3.270;2023-12-22T14:20:58;333.70;2329.60
16491;DHT22;8356;51.214;3.270;2023-12-22T14:23:24;333.70;2329.60
16491;DHT22;8356;51.214;3.270;2023-12-22T14:25:51;333.70;2329.60
16491;DHT22;8356;51.214;3.270;2023-12-22T14:28:16;333.70;2329.60
16491;DHT22;8356;51.214;3.270;2023-12-22T14:30:42;333.70;2329.60
16491;DHT22;8356;51.214;3.270;2023-12-22T14:33:08;333.70;2329.60
16491;DHT22;8356;51.214;3.270;2023-12-22T14:35:33;333.70;2329.60
16491;DHT22;8356;51.214;3.270;2023-12-22T14:37:59;333.70;2329.60
16491;DHT22;8356;51.214;3.270;2023-12-22T14:40:25;333.70;2329.60
16491;DHT22;8356;51.214;3.270;2023-12-22T14:42:51;333.70;2329.60
16491;DHT22;8356;51.214;3.270;2023-12-22T14:45:16;333.70;2329.60
16491;DHT22;8356;51.214;3.270;2023-12-22T14:47:42;333.70;2329.60
16491;DHT22;8356;51.214;3.270;2023-12-22T14:50:08;333.70;2329.60
16491;DHT22;8356;51.214;3.270;2023-12-22T14:52:33;358.40;2329.60
16491;DHT22;8356;51.214;3.270;2023-12-22T14:55:00;333.70;2329.60
16491;DHT22;8356;51.214;3.270;2023-12-22T14:57:26;333.70;2329.60
16491;DHT22;8356;51.214;3.270;2023-12-22T14:59:54;333.70;2329.60
16491;DHT22;8356;51.214;3.270;2023-12-22T15:02:20;333.70;2329.60
16491;DHT22;8356;51.214;3.270;2023-12-22T15:04:45;333.70;2329.60
16491;DHT22;8356;51.214;3.270;2023-12-22T15:07:15;358.40;2329.60
16491;DHT22;8356;51.214;3.270;2023-12-22T15:09:41;333.70;2329.60
16491;DHT22;8356;51.214;3.270;2023-12-22T15:12:07;333.70;2329.60